createdAt,value
2019-01-08T00:00:11.006Z,17.73
2019-01-08T00:02:43.788Z,17.03
2019-01-08T00:05:14.902Z,17.37
2019-01-08T00:07:46.031Z,17.13
2019-01-08T00:10:19.101Z,16.50
2019-01-08T00:12:50.400Z,17.60
2019-01-08T00:15:21.572Z,17.00
2019-01-08T00:17:52.893Z,17.33
2019-01-08T00:20:24.107Z,16.47
2019-01-08T00:22:55.650Z,15.13
2019-01-08T00:25:26.836Z,16.43
2019-01-08T00:27:58.216Z,16.37
2019-01-08T00:30:29.398Z,17.33
2019-01-08T00:33:00.604Z,17.63
2019-01-08T00:35:31.818Z,16.97
2019-01-08T00:38:03.194Z,17.33
2019-01-08T00:40:34.446Z,16.47
2019-01-08T00:43:05.713Z,16.80
2019-01-08T00:45:36.919Z,17.57
2019-01-08T00:48:08.034Z,17.27
2019-01-08T00:50:39.353Z,17.50
2019-01-08T00:53:11.613Z,16.57
2019-01-08T00:55:42.733Z,16.53
2019-01-08T00:58:13.914Z,17.47
2019-01-08T01:00:46.180Z,15.60
2019-01-08T01:03:17.398Z,16.93
2019-01-08T01:05:48.701Z,16.70
2019-01-08T01:08:20.081Z,15.63
2019-01-08T01:10:51.289Z,17.17
2019-01-08T01:13:22.497Z,18.53
2019-01-08T01:15:55.081Z,18.50
2019-01-08T01:18:28.380Z,16.37
2019-01-08T01:20:59.613Z,18.30
2019-01-08T01:23:30.959Z,18.33
2019-01-08T01:26:02.280Z,17.60
2019-01-08T01:28:33.550Z,17.40
2019-01-08T01:31:04.883Z,18.23
2019-01-08T01:33:36.070Z,18.13
2019-01-08T01:36:07.275Z,18.60
2019-01-08T01:38:38.599Z,17.93
2019-01-08T01:41:09.749Z,16.93
2019-01-08T01:43:40.949Z,17.27
2019-01-08T01:46:12.180Z,16.80
2019-01-08T01:48:44.371Z,17.10
2019-01-08T01:51:16.748Z,17.20
2019-01-08T01:53:47.834Z,17.63
2019-01-08T01:56:19.165Z,17.93
2019-01-08T01:58:50.470Z,16.67
2019-01-08T02:01:21.791Z,18.87
2019-01-08T02:03:52.860Z,19.57
2019-01-08T02:06:23.979Z,17.30
2019-01-08T02:08:55.299Z,16.93
2019-01-08T02:11:26.713Z,16.73
2019-01-08T02:13:58.862Z,18.50
2019-01-08T02:16:32.656Z,18.23
2019-01-08T02:19:03.887Z,17.53
2019-01-08T02:21:34.971Z,18.07
2019-01-08T02:24:06.513Z,17.73
2019-01-08T02:26:37.729Z,17.07
2019-01-08T02:29:16.296Z,17.33
2019-01-08T02:31:41.745Z,18.37
2019-01-08T02:34:13.093Z,16.90
2019-01-08T02:36:46.169Z,16.97
2019-01-08T02:39:17.468Z,18.00
2019-01-08T02:41:48.807Z,17.33
2019-01-08T02:44:20.216Z,17.53
2019-01-08T02:46:51.365Z,18.10
2019-01-08T02:49:24.058Z,17.80
2019-01-08T02:51:55.081Z,17.90
2019-01-08T02:54:26.526Z,18.40
2019-01-08T02:56:57.791Z,17.93
2019-01-08T02:59:28.949Z,18.77
2019-01-08T03:02:00.223Z,20.43
2019-01-08T03:04:31.424Z,21.00
2019-01-08T03:07:02.671Z,21.63
2019-01-08T03:09:38.504Z,20.50
2019-01-08T03:12:11.274Z,24.10
2019-01-08T03:14:42.557Z,25.90
2019-01-08T03:17:14.845Z,24.63
2019-01-08T03:19:46.082Z,26.13
2019-01-08T03:22:19.276Z,27.00
2019-01-08T03:24:50.545Z,29.23
2019-01-08T03:27:21.652Z,27.33
2019-01-08T03:29:52.890Z,28.03
2019-01-08T03:32:24.112Z,25.53
2019-01-08T03:34:55.202Z,25.50
2019-01-08T03:37:28.041Z,26.00
2019-01-08T03:39:59.247Z,23.70
2019-01-08T03:42:30.451Z,23.30
2019-01-08T03:45:01.799Z,23.20
2019-01-08T03:47:35.411Z,30.33
2019-01-08T03:50:07.048Z,29.07
2019-01-08T03:52:41.776Z,27.93
2019-01-08T03:55:12.852Z,27.57
2019-01-08T03:57:44.004Z,23.77
2019-01-08T04:00:15.485Z,28.20
2019-01-08T04:02:50.406Z,26.23
2019-01-08T04:05:21.717Z,53.97
2019-01-08T04:07:52.944Z,28.30
2019-01-08T04:10:24.027Z,22.47
2019-01-08T04:12:57.009Z,25.43
2019-01-08T04:15:30.084Z,22.27
2019-01-08T04:18:02.563Z,23.57
2019-01-08T04:20:33.783Z,22.67
2019-01-08T04:23:05.084Z,47.73
2019-01-08T04:25:36.191Z,80.73
2019-01-08T04:28:10.053Z,59.47
2019-01-08T04:30:41.291Z,28.50
2019-01-08T04:33:12.621Z,24.60
2019-01-08T04:35:43.728Z,23.00
2019-01-08T04:38:15.015Z,22.33
2019-01-08T04:40:46.238Z,24.63
2019-01-08T04:43:17.471Z,23.47
2019-01-08T04:45:48.771Z,22.30
2019-01-08T04:48:19.782Z,22.67
2019-01-08T04:50:51.093Z,26.53
2019-01-08T04:53:22.368Z,22.70
2019-01-08T04:55:54.589Z,23.37
2019-01-08T04:58:25.854Z,26.47
2019-01-08T05:00:57.017Z,23.53
2019-01-08T05:03:28.125Z,23.87
2019-01-08T05:05:59.538Z,23.57
2019-01-08T05:08:30.654Z,23.57
2019-01-08T05:11:01.953Z,23.60
2019-01-08T05:13:33.024Z,24.13
2019-01-08T05:16:04.227Z,25.97
2019-01-08T05:18:35.434Z,28.23
2019-01-08T05:21:06.643Z,25.90
2019-01-08T05:23:37.957Z,24.00
2019-01-08T05:26:09.204Z,24.70
2019-01-08T05:28:40.487Z,25.20
2019-01-08T05:31:11.695Z,25.23
2019-01-08T05:33:42.891Z,25.27
2019-01-08T05:36:14.152Z,26.57
2019-01-08T05:38:47.474Z,26.40
2019-01-08T05:41:20.323Z,25.37
2019-01-08T05:43:51.551Z,24.80
2019-01-08T05:46:22.826Z,25.87
2019-01-08T05:48:54.173Z,25.40
2019-01-08T05:51:25.431Z,25.87
2019-01-08T05:53:57.818Z,25.30
2019-01-08T05:56:29.089Z,27.63
2019-01-08T05:59:00.246Z,28.20
2019-01-08T06:01:31.395Z,30.23
2019-01-08T06:04:02.615Z,27.13
2019-01-08T06:06:33.957Z,27.20
2019-01-08T06:09:06.536Z,27.57
2019-01-08T06:11:37.921Z,26.43
2019-01-08T06:14:10.485Z,28.03
2019-01-08T06:16:41.661Z,28.90
2019-01-08T06:19:13.002Z,27.53
2019-01-08T06:21:44.174Z,28.40
2019-01-08T06:24:15.267Z,32.07
2019-01-08T06:26:46.721Z,28.60
2019-01-08T06:29:17.841Z,26.93
2019-01-08T06:31:49.137Z,29.03
2019-01-08T06:34:21.840Z,28.23
2019-01-08T06:36:53.008Z,30.60
2019-01-08T06:39:25.752Z,28.87
2019-01-08T06:41:56.955Z,29.73
2019-01-08T06:44:28.026Z,29.77
2019-01-08T06:46:59.240Z,35.10
2019-01-08T06:49:30.601Z,41.13
2019-01-08T06:52:01.813Z,37.20
2019-01-08T06:54:33.010Z,34.43
2019-01-08T06:57:04.332Z,32.80
2019-01-08T06:59:35.445Z,31.57
2019-01-08T07:02:06.586Z,31.17
2019-01-08T07:04:37.829Z,30.67
2019-01-08T07:07:09.049Z,31.83
2019-01-08T07:09:40.228Z,38.63
2019-01-08T07:12:11.377Z,36.43
2019-01-08T07:14:42.658Z,33.40
2019-01-08T07:17:13.863Z,32.37
2019-01-08T07:19:45.124Z,32.53
2019-01-08T07:22:16.325Z,31.13
2019-01-08T07:24:48.580Z,31.20
2019-01-08T07:27:19.830Z,32.77
2019-01-08T07:29:50.950Z,29.47
2019-01-08T07:32:22.154Z,30.43
2019-01-08T07:34:53.264Z,30.40
2019-01-08T07:37:24.695Z,31.87
2019-01-08T07:39:57.236Z,31.97
2019-01-08T07:42:28.460Z,33.03
2019-01-08T07:44:59.696Z,36.33
2019-01-08T07:47:31.000Z,34.63
2019-01-08T07:50:02.208Z,32.00
2019-01-08T07:52:33.575Z,31.67
2019-01-08T07:55:04.789Z,32.37
2019-01-08T07:57:37.492Z,33.07
2019-01-08T08:00:08.791Z,33.70
2019-01-08T08:02:40.197Z,32.47
2019-01-08T08:05:13.064Z,30.77
2019-01-08T08:07:44.324Z,30.47
2019-01-08T08:10:15.445Z,31.07
2019-01-08T08:12:46.854Z,31.60
2019-01-08T08:15:18.111Z,30.37
2019-01-08T08:17:49.202Z,29.37
2019-01-08T08:20:20.535Z,30.77
2019-01-08T08:22:51.700Z,28.60
2019-01-08T08:25:22.808Z,27.47
2019-01-08T08:27:54.144Z,28.00
2019-01-08T08:30:26.358Z,28.33
2019-01-08T08:32:57.804Z,28.17
2019-01-08T08:35:29.120Z,29.03
2019-01-08T08:38:00.398Z,28.00
2019-01-08T08:40:33.045Z,27.50
2019-01-08T08:43:07.165Z,27.20
2019-01-08T08:45:38.360Z,26.47
2019-01-08T08:48:09.705Z,25.83
2019-01-08T08:50:41.130Z,27.13
2019-01-08T08:53:12.310Z,25.40
2019-01-08T08:55:44.597Z,24.77
2019-01-08T08:58:15.842Z,21.63
2019-01-08T09:00:50.495Z,17.70
2019-01-08T09:03:23.845Z,16.13
2019-01-08T09:05:55.032Z,23.07
2019-01-08T09:08:27.373Z,26.77
2019-01-08T09:10:59.922Z,31.33
2019-01-08T09:13:31.300Z,27.33
2019-01-08T09:16:03.511Z,29.23
2019-01-08T09:18:35.140Z,20.13
2019-01-08T09:21:09.359Z,16.33
2019-01-08T09:23:40.537Z,20.10
2019-01-08T09:26:11.723Z,26.53
2019-01-08T09:28:43.171Z,28.57
2019-01-08T09:31:15.656Z,29.80
2019-01-08T09:33:47.098Z,27.80
2019-01-08T09:36:18.343Z,29.57
2019-01-08T09:38:49.934Z,30.40
2019-01-08T09:41:21.181Z,30.37
2019-01-08T09:43:52.477Z,36.37
2019-01-08T09:46:23.998Z,33.23
2019-01-08T09:48:55.218Z,30.07
2019-01-08T09:51:26.636Z,30.17
2019-01-08T09:53:59.656Z,30.07
2019-01-08T09:56:30.752Z,29.77
2019-01-08T09:59:02.148Z,22.27
2019-01-08T10:01:33.404Z,24.73
2019-01-08T10:04:05.179Z,22.80
2019-01-08T10:06:36.559Z,15.83
2019-01-08T10:09:08.360Z,16.40
2019-01-08T10:11:39.529Z,15.97
2019-01-08T10:14:10.594Z,17.00
2019-01-08T10:16:41.811Z,15.27
2019-01-08T10:19:13.027Z,16.10
2019-01-08T10:21:44.239Z,15.30
2019-01-08T10:24:15.413Z,14.77
2019-01-08T10:26:46.677Z,14.87
2019-01-08T10:29:17.836Z,15.70
2019-01-08T10:31:49.044Z,15.73
2019-01-08T10:34:20.372Z,16.67
2019-01-08T10:36:51.705Z,16.70
2019-01-08T10:39:22.812Z,15.43
2019-01-08T10:41:54.091Z,15.57
2019-01-08T10:44:25.510Z,16.90
2019-01-08T10:46:56.702Z,16.63
2019-01-08T10:49:28.059Z,16.53
2019-01-08T10:51:59.071Z,16.03
2019-01-08T10:54:30.282Z,17.07
2019-01-08T10:57:01.468Z,16.33
2019-01-08T10:59:32.714Z,17.33
2019-01-08T11:02:03.977Z,17.77
2019-01-08T11:04:36.127Z,17.73
2019-01-08T11:07:07.435Z,17.03
2019-01-08T11:09:38.770Z,17.27
2019-01-08T11:12:10.051Z,17.50
2019-01-08T11:14:41.281Z,16.97
2019-01-08T11:17:13.562Z,17.27
2019-01-08T11:19:44.918Z,16.70
2019-01-08T11:22:16.143Z,17.70
2019-01-08T11:24:47.525Z,16.90
2019-01-08T11:27:18.750Z,17.30
2019-01-08T11:29:50.007Z,17.27
2019-01-08T11:32:21.206Z,18.20
2019-01-08T11:34:52.480Z,17.57
2019-01-08T11:37:23.737Z,18.37
2019-01-08T11:39:55.249Z,17.63
2019-01-08T11:42:26.424Z,18.10
2019-01-08T11:44:57.665Z,18.53
2019-01-08T11:47:28.961Z,19.40
2019-01-08T11:50:00.293Z,20.03
2019-01-08T11:52:31.317Z,19.80
2019-01-08T11:55:02.693Z,20.00
2019-01-08T11:57:33.780Z,20.80
2019-01-08T12:00:07.193Z,19.50
2019-01-08T12:02:47.612Z,20.20
2019-01-08T12:05:14.873Z,21.70
2019-01-08T12:07:45.763Z,21.63
2019-01-08T12:10:17.015Z,20.03
2019-01-08T12:12:48.343Z,20.50
2019-01-08T12:15:19.459Z,19.40
2019-01-08T12:17:50.757Z,18.57
2019-01-08T12:20:22.245Z,19.30
2019-01-08T12:22:53.566Z,19.03
2019-01-08T12:25:24.748Z,18.97
2019-01-08T12:27:55.923Z,19.60
2019-01-08T12:30:27.342Z,19.80
2019-01-08T12:32:58.651Z,18.93
2019-01-08T12:35:29.865Z,19.63
2019-01-08T12:38:01.022Z,18.40
2019-01-08T12:40:32.395Z,19.13
2019-01-08T12:43:03.812Z,19.43
2019-01-08T12:45:37.105Z,19.30
2019-01-08T12:48:08.482Z,20.17
2019-01-08T12:50:39.801Z,20.60
2019-01-08T12:53:11.075Z,23.70
2019-01-08T12:55:42.418Z,23.70
2019-01-08T12:58:13.658Z,22.43
2019-01-08T13:00:44.917Z,21.63
2019-01-08T13:03:16.398Z,17.93
2019-01-08T13:05:47.477Z,19.90
2019-01-08T13:08:18.760Z,20.67
2019-01-08T13:10:50.064Z,20.33
2019-01-08T13:13:22.206Z,20.60
2019-01-08T13:15:54.714Z,19.13
2019-01-08T13:18:26.104Z,20.57
2019-01-08T13:20:58.530Z,19.50
2019-01-08T13:23:29.714Z,18.53
2019-01-08T13:26:01.112Z,18.93
2019-01-08T13:28:32.333Z,19.03
2019-01-08T13:31:03.562Z,18.73
2019-01-08T13:33:35.077Z,18.77
2019-01-08T13:36:07.600Z,23.20
2019-01-08T13:38:38.743Z,20.07
2019-01-08T13:41:10.045Z,20.10
2019-01-08T13:43:41.364Z,20.17
2019-01-08T13:46:12.716Z,20.17
2019-01-08T13:48:43.927Z,18.87
2019-01-08T13:51:15.306Z,19.27
2019-01-08T13:53:46.694Z,18.33
2019-01-08T13:56:20.477Z,19.23
2019-01-08T13:58:51.761Z,20.33
2019-01-08T14:01:23.105Z,18.63
2019-01-08T14:03:54.317Z,19.57
2019-01-08T14:06:25.605Z,19.60
2019-01-08T14:08:56.912Z,19.10
2019-01-08T14:11:28.269Z,17.30
2019-01-08T14:14:00.897Z,17.77
2019-01-08T14:16:32.112Z,17.43
2019-01-08T14:19:03.314Z,18.50
2019-01-08T14:21:34.641Z,19.97
2019-01-08T14:24:05.994Z,18.47
2019-01-08T14:26:37.341Z,17.57
2019-01-08T14:29:10.768Z,17.63
2019-01-08T14:31:42.244Z,15.70
2019-01-08T14:34:13.548Z,16.40
2019-01-08T14:36:44.860Z,15.83
2019-01-08T14:39:16.063Z,15.83
2019-01-08T14:41:47.269Z,16.23
2019-01-08T14:44:19.613Z,16.90
2019-01-08T14:46:50.846Z,17.90
2019-01-08T14:49:22.256Z,17.07
2019-01-08T14:51:53.623Z,17.07
2019-01-08T14:54:24.959Z,16.33
2019-01-08T14:56:56.156Z,17.53
2019-01-08T14:59:28.634Z,16.23
2019-01-08T15:02:01.328Z,16.97
2019-01-08T15:04:32.508Z,16.53
2019-01-08T15:07:04.010Z,17.50
2019-01-08T15:09:35.039Z,18.67
2019-01-08T15:12:06.322Z,19.23
2019-01-08T15:14:37.770Z,21.57
2019-01-08T15:17:09.041Z,21.60
2019-01-08T15:19:41.568Z,19.97
2019-01-08T15:22:13.896Z,20.37
2019-01-08T15:24:48.577Z,47.50
2019-01-08T15:27:20.105Z,44.50
2019-01-08T15:29:51.415Z,47.53
2019-01-08T15:32:22.869Z,43.80
2019-01-08T15:34:54.091Z,44.07
2019-01-08T15:37:25.493Z,43.60
2019-01-08T15:39:56.724Z,41.50
2019-01-08T15:42:29.698Z,40.97
2019-01-08T15:45:01.900Z,42.90
2019-01-08T15:47:33.204Z,44.43
2019-01-08T15:50:05.331Z,48.57
2019-01-08T15:52:36.652Z,52.53
2019-01-08T15:55:08.887Z,56.53
2019-01-08T15:57:42.141Z,65.53
2019-01-08T16:00:15.541Z,63.77
2019-01-08T16:02:47.022Z,69.67
2019-01-08T16:05:18.337Z,96.20
2019-01-08T16:07:50.868Z,104.67
2019-01-08T16:10:22.024Z,111.27
2019-01-08T16:12:55.040Z,69.77
2019-01-08T16:15:26.473Z,74.37
2019-01-08T16:17:57.661Z,76.90
2019-01-08T16:20:29.337Z,63.43
2019-01-08T16:23:01.787Z,62.37
2019-01-08T16:25:33.059Z,58.23
2019-01-08T16:28:04.362Z,54.40
2019-01-08T16:30:35.642Z,55.20
2019-01-08T16:33:15.704Z,49.60
2019-01-08T16:35:40.913Z,46.30
2019-01-08T16:38:12.249Z,51.87
2019-01-08T16:40:43.344Z,49.77
2019-01-08T16:43:14.684Z,54.07
2019-01-08T16:45:45.917Z,52.23
2019-01-08T16:48:16.967Z,52.30
2019-01-08T16:50:48.087Z,53.37
2019-01-08T16:53:19.592Z,52.00
2019-01-08T16:55:50.715Z,48.73
2019-01-08T16:58:23.571Z,50.50
2019-01-08T17:00:54.912Z,54.10
2019-01-08T17:03:26.831Z,70.07
2019-01-08T17:05:58.150Z,71.67
2019-01-08T17:08:29.421Z,74.57
2019-01-08T17:11:01.123Z,71.97
2019-01-08T17:13:32.471Z,77.03
2019-01-08T17:16:03.683Z,78.30
2019-01-08T17:18:35.338Z,79.40
2019-01-08T17:21:06.558Z,85.40
2019-01-08T17:23:37.753Z,66.27
2019-01-08T17:26:09.083Z,62.73
2019-01-08T17:28:40.736Z,62.97
2019-01-08T17:31:11.858Z,68.33
2019-01-08T17:33:43.174Z,77.07
2019-01-08T17:36:14.462Z,85.50
2019-01-08T17:38:45.700Z,84.50
2019-01-08T17:41:16.932Z,85.27
2019-01-08T17:43:49.679Z,85.90
2019-01-08T17:46:21.077Z,69.40
2019-01-08T17:48:52.389Z,62.47
2019-01-08T17:51:23.742Z,70.23
2019-01-08T17:53:55.015Z,75.67
2019-01-08T17:56:26.498Z,78.60
2019-01-08T17:59:06.721Z,81.03
2019-01-08T18:01:42.311Z,67.50
2019-01-08T18:04:13.607Z,61.00
2019-01-08T18:06:44.861Z,58.17
2019-01-08T18:09:16.147Z,55.43
2019-01-08T18:11:47.518Z,53.97
2019-01-08T18:14:18.906Z,55.80
2019-01-08T18:16:50.087Z,55.37
2019-01-08T18:19:21.539Z,53.53
2019-01-08T18:21:52.613Z,57.13
2019-01-08T18:24:23.706Z,55.77
2019-01-08T18:26:55.100Z,57.20
2019-01-08T18:29:26.223Z,52.63
2019-01-08T18:31:57.650Z,56.37
2019-01-08T18:34:29.219Z,47.67
2019-01-08T18:37:00.458Z,47.50
2019-01-08T18:39:31.829Z,49.57
2019-01-08T18:42:02.914Z,46.93
2019-01-08T18:44:35.225Z,50.57
2019-01-08T18:47:06.633Z,46.37
2019-01-08T18:49:42.670Z,45.57
2019-01-08T18:52:15.535Z,45.87
2019-01-08T18:54:46.832Z,45.33
2019-01-08T18:57:17.894Z,46.17
2019-01-08T18:59:49.115Z,52.37
2019-01-08T19:02:20.492Z,56.77
2019-01-08T19:04:52.007Z,55.17
2019-01-08T19:07:23.170Z,57.73
2019-01-08T19:10:02.539Z,54.83
2019-01-08T19:12:36.093Z,50.83
2019-01-08T19:15:07.863Z,49.83
2019-01-08T19:17:39.288Z,52.20
2019-01-08T19:20:10.778Z,55.43
2019-01-08T19:22:43.164Z,57.67
2019-01-08T19:25:14.581Z,59.77
2019-01-08T19:27:45.833Z,59.43
2019-01-08T19:30:17.039Z,60.50
2019-01-08T19:32:48.425Z,56.60
2019-01-08T19:35:19.968Z,54.53
2019-01-08T19:37:51.300Z,56.87
2019-01-08T19:40:22.636Z,57.37
2019-01-08T19:42:53.828Z,53.07
2019-01-08T19:45:25.240Z,56.67
2019-01-08T19:47:56.458Z,57.97
2019-01-08T19:50:29.059Z,64.37
2019-01-08T19:53:00.131Z,62.77
2019-01-08T19:55:31.449Z,72.37
2019-01-08T19:58:02.730Z,74.80
2019-01-08T20:00:35.860Z,74.93
2019-01-08T20:03:07.123Z,68.07
2019-01-08T20:05:38.440Z,62.27
2019-01-08T20:08:09.780Z,54.87
2019-01-08T20:10:47.296Z,54.73
2019-01-08T20:13:18.633Z,54.50
2019-01-08T20:15:49.932Z,54.87
2019-01-08T20:18:23.494Z,54.70
2019-01-08T20:20:54.780Z,53.90
2019-01-08T20:23:26.114Z,59.60
2019-01-08T20:25:59.384Z,63.37
2019-01-08T20:28:30.686Z,57.27
2019-01-08T20:31:01.929Z,54.10
2019-01-08T20:33:33.318Z,55.73
2019-01-08T20:36:04.768Z,57.60
2019-01-08T20:38:36.165Z,62.70
2019-01-08T20:41:08.953Z,75.20
2019-01-08T20:43:41.630Z,72.57
2019-01-08T20:46:12.741Z,83.57
2019-01-08T20:48:43.846Z,87.33
2019-01-08T20:51:16.601Z,78.63
2019-01-08T20:53:49.857Z,72.30
2019-01-08T20:56:21.412Z,76.17
2019-01-08T20:58:53.690Z,64.23
2019-01-08T21:01:26.047Z,66.37
2019-01-08T21:03:57.281Z,72.37
2019-01-08T21:06:30.514Z,67.57
2019-01-08T21:09:01.649Z,65.80
2019-01-08T21:11:34.795Z,68.10
2019-01-08T21:14:05.980Z,66.83
2019-01-08T21:16:37.256Z,69.00
2019-01-08T21:19:10.298Z,51.23
2019-01-08T21:21:41.739Z,45.80
2019-01-08T21:24:12.992Z,44.53
2019-01-08T21:26:44.160Z,47.77
2019-01-08T21:29:15.316Z,44.90
2019-01-08T21:31:46.640Z,44.27
2019-01-08T21:34:17.912Z,46.47
2019-01-08T21:36:49.248Z,47.10
2019-01-08T21:39:20.567Z,47.20
2019-01-08T21:41:51.945Z,44.77
2019-01-08T21:44:24.828Z,42.53
2019-01-08T21:46:56.084Z,40.93
2019-01-08T21:49:27.223Z,40.53
2019-01-08T21:51:58.460Z,43.07
